Time,TemperatureF,DewpointF,PressureIn,WindDirection,WindDirectionDegrees,WindSpeedMPH,WindSpeedGustMPH,Humidity,HourlyPrecipIn,Conditions,Clouds,dailyrainin,SoftwareType,DateUTC
2013-06-04 00:00:00,50.1,43.8,30.01,NNE,13,0.0,0.0,79,0.00,,,0.00,Wunderground v.1.15,2013-06-04 04:00:00,
2013-06-04 00:05:00,49.8,43.5,30.01,NNE,13,0.0,0.0,79,0.00,,,0.00,Wunderground v.1.15,2013-06-04 04:05:00,
2013-06-04 00:10:00,49.8,43.5,30.01,NNE,13,0.0,0.0,79,0.00,,,0.00,Wunderground v.1.15,2013-06-04 04:10:00,
2013-06-04 00:15:00,49.5,42.9,30.01,NNE,13,0.0,0.0,78,0.00,,,0.00,Wunderground v.1.15,2013-06-04 04:15:00,
2013-06-04 00:20:00,49.4,42.8,30.01,NNE,13,0.0,0.0,78,0.00,,,0.00,Wunderground v.1.15,2013-06-04 04:20:00,
2013-06-04 00:25:00,49.4,42.5,30.01,NNE,13,0.0,0.0,77,0.00,,,0.00,Wunderground v.1.15,2013-06-04 04:25:00,
2013-06-04 00:30:00,49.1,42.5,30.01,NNE,13,0.0,0.0,78,0.00,,,0.00,Wunderground v.1.15,2013-06-04 04:30:00,
2013-06-04 00:40:00,48.8,42.6,30.01,NNE,13,0.0,0.0,79,0.00,,,0.00,Wunderground v.1.15,2013-06-04 04:40:00,
2013-06-04 00:45:00,48.6,42.7,30.02,NNE,13,0.0,0.0,80,0.00,,,0.00,Wunderground v.1.15,2013-06-04 04:45:00,
2013-06-04 00:55:00,48.2,42.0,30.02,NNE,13,0.0,0.0,79,0.00,,,0.00,Wunderground v.1.15,2013-06-04 04:55:00,
2013-06-04 01:00:00,47.9,41.7,30.02,NNE,13,0.0,0.0,79,0.00,,,0.00,Wunderground v.1.15,2013-06-04 05:00:00,
2013-06-04 01:10:00,47.4,41.5,30.02,NNE,13,0.0,0.0,80,0.00,,,0.00,Wunderground v.1.15,2013-06-04 05:10:00,
2013-06-04 01:15:00,47.3,41.8,30.02,NNE,13,0.0,0.0,81,0.00,,,0.00,Wunderground v.1.15,2013-06-04 05:15:00,
2013-06-04 01:25:00,47.1,42.2,30.02,NNE,13,0.0,0.0,83,0.00,,,0.00,Wunderground v.1.15,2013-06-04 05:25:00,
2013-06-04 01:30:00,47.0,42.1,30.02,NNE,13,0.0,0.0,83,0.00,,,0.00,Wunderground v.1.15,2013-06-04 05:30:00,
2013-06-04 01:40:00,46.8,41.0,30.02,NNE,13,0.0,0.0,80,0.00,,,0.00,Wunderground v.1.15,2013-06-04 05:40:00,
2013-06-04 01:45:00,46.7,40.9,30.02,NNE,13,0.0,0.0,80,0.00,,,0.00,Wunderground v.1.15,2013-06-04 05:45:00,
2013-06-04 01:55:00,46.5,40.7,30.02,NNE,13,0.0,0.0,80,0.00,,,0.00,Wunderground v.1.15,2013-06-04 05:55:00,
2013-06-04 02:00:00,46.5,41.0,30.02,NNE,13,0.0,0.0,81,0.00,,,0.00,Wunderground v.1.15,2013-06-04 06:00:00,
2013-06-04 02:10:00,46.4,40.6,30.02,NNE,13,0.0,0.0,80,0.00,,,0.00,Wunderground v.1.15,2013-06-04 06:10:00,
2013-06-04 02:15:00,46.2,40.4,30.02,NNE,13,0.0,0.0,80,0.00,,,0.00,Wunderground v.1.15,2013-06-04 06:15:00,
2013-06-04 02:25:00,46.0,39.2,30.02,NNE,13,0.0,0.0,77,0.00,,,0.00,Wunderground v.1.15,2013-06-04 06:25:00,
2013-06-04 02:30:00,45.8,39.7,30.02,NNE,13,0.0,0.0,79,0.00,,,0.00,Wunderground v.1.15,2013-06-04 06:30:00,
2013-06-04 02:40:00,45.7,39.6,30.02,NNE,13,0.0,0.0,79,0.00,,,0.00,Wunderground v.1.15,2013-06-04 06:40:00,
2013-06-04 02:45:00,45.5,39.4,30.02,NNE,13,0.0,0.0,79,0.00,,,0.00,Wunderground v.1.15,2013-06-04 06:45:00,
2013-06-04 02:55:00,45.1,39.3,30.02,NNE,13,0.0,0.0,80,0.00,,,0.00,Wunderground v.1.15,2013-06-04 06:55:00,
2013-06-04 03:00:00,44.9,38.8,30.02,NNE,13,0.0,0.0,79,0.00,,,0.00,Wunderground v.1.15,2013-06-04 07:00:00,
2013-06-04 03:10:00,44.6,38.8,30.02,NNE,13,0.0,0.0,80,0.00,,,0.00,Wunderground v.1.15,2013-06-04 07:10:00,
2013-06-04 03:15:00,44.5,38.7,30.02,NNE,13,0.0,0.0,80,0.00,,,0.00,Wunderground v.1.15,2013-06-04 07:15:00,
2013-06-04 03:25:00,44.2,38.7,30.02,NNE,13,0.0,0.0,81,0.00,,,0.00,Wunderground v.1.15,2013-06-04 07:25:00,
2013-06-04 03:30:00,44.2,39.1,30.01,NNE,13,0.0,0.0,82,0.00,,,0.00,Wunderground v.1.15,2013-06-04 07:30:00,
2013-06-04 03:40:00,43.9,38.8,30.01,NNE,13,0.0,0.0,82,0.00,,,0.00,Wunderground v.1.15,2013-06-04 07:40:00,
2013-06-04 03:45:00,43.9,38.8,30.03,NNE,13,0.0,0.0,82,0.00,,,0.00,Wunderground v.1.15,2013-06-04 07:45:00,
2013-06-04 03:55:00,43.8,39.0,30.03,NNE,13,0.0,0.0,83,0.00,,,0.00,Wunderground v.1.15,2013-06-04 07:55:00,
2013-06-04 04:00:00,43.6,39.1,30.03,NNE,13,0.0,0.0,84,0.00,,,0.00,Wunderground v.1.15,2013-06-04 08:00:00,
2013-06-04 04:05:00,43.6,39.1,30.03,NNE,13,0.0,0.0,84,0.00,,,0.00,Wunderground v.1.15,2013-06-04 08:05:00,
2013-06-04 04:15:00,43.6,39.7,30.04,NNE,13,0.0,0.0,86,0.00,,,0.00,Wunderground v.1.15,2013-06-04 08:15:00,
2013-06-04 04:25:00,43.5,39.6,30.04,NNE,13,0.0,0.0,86,0.00,,,0.00,Wunderground v.1.15,2013-06-04 08:25:00,
2013-06-04 04:30:00,43.3,39.4,30.05,NNE,13,0.0,0.0,86,0.00,,,0.00,Wunderground v.1.15,2013-06-04 08:30:00,
2013-06-04 04:40:00,43.1,39.2,30.05,NNE,13,0.0,0.0,86,0.00,,,0.00,Wunderground v.1.15,2013-06-04 08:40:00,
2013-06-04 04:45:00,42.9,39.0,30.05,NNE,13,0.0,0.0,86,0.00,,,0.00,Wunderground v.1.15,2013-06-04 08:45:00,
2013-06-04 04:55:00,42.6,39.0,30.05,NNE,13,0.0,0.0,87,0.00,,,0.00,Wunderground v.1.15,2013-06-04 08:55:00,
2013-06-04 05:00:00,42.5,38.9,30.05,NNE,13,0.0,0.0,87,0.00,,,0.00,Wunderground v.1.15,2013-06-04 09:00:00,
2013-06-04 05:10:00,42.3,39.0,30.05,NNE,13,0.0,0.0,88,0.00,,,0.00,Wunderground v.1.15,2013-06-04 09:10:00,
2013-06-04 05:15:00,42.3,39.0,30.05,NNE,13,0.0,0.0,88,0.00,,,0.00,Wunderground v.1.15,2013-06-04 09:15:00,
2013-06-04 05:25:00,42.2,39.2,30.05,NNE,13,0.0,0.0,89,0.00,,,0.00,Wunderground v.1.15,2013-06-04 09:25:00,
2013-06-04 05:30:00,42.2,39.2,30.05,NNE,13,0.0,0.0,89,0.00,,,0.00,Wunderground v.1.15,2013-06-04 09:30:00,
2013-06-04 05:40:00,42.1,39.1,30.05,NNE,13,0.0,0.0,89,0.00,,,0.00,Wunderground v.1.15,2013-06-04 09:40:00,
2013-06-04 05:45:00,42.1,39.1,30.05,NNE,13,0.0,0.0,89,0.00,,,0.00,Wunderground v.1.15,2013-06-04 09:45:00,
2013-06-04 05:55:00,42.1,39.4,30.05,NNE,13,0.0,0.0,90,0.00,,,0.00,Wunderground v.1.15,2013-06-04 09:55:00,
2013-06-04 06:00:00,42.1,39.4,30.05,NNE,13,0.0,0.0,90,0.00,,,0.00,Wunderground v.1.15,2013-06-04 10:00:00,
2013-06-04 06:10:00,41.9,39.2,30.05,NNE,13,0.0,0.0,90,0.00,,,0.00,Wunderground v.1.15,2013-06-04 10:10:00,
2013-06-04 06:16:00,41.9,39.5,30.06,NNE,13,0.0,0.0,91,0.00,,,0.00,Wunderground v.1.15,2013-06-04 10:16:00,
2013-06-04 06:25:00,41.9,39.5,30.06,NNE,13,0.0,0.0,91,0.00,,,0.00,Wunderground v.1.15,2013-06-04 10:25:00,
2013-06-04 06:30:00,41.9,39.5,30.06,NNE,13,0.0,0.0,91,0.00,,,0.00,Wunderground v.1.15,2013-06-04 10:30:00,
2013-06-04 06:40:00,41.9,39.5,30.06,NNE,13,0.0,0.0,91,0.00,,,0.00,Wunderground v.1.15,2013-06-04 10:40:00,
2013-06-04 06:45:00,41.9,39.7,30.07,NNE,13,0.0,0.0,92,0.00,,,0.00,Wunderground v.1.15,2013-06-04 10:45:00,
2013-06-04 06:55:00,42.1,39.9,30.07,NNE,13,0.0,0.0,92,0.00,,,0.00,Wunderground v.1.15,2013-06-04 10:55:00,
2013-06-04 07:00:00,42.2,40.0,30.08,NNE,13,0.0,0.0,92,0.00,,,0.00,Wunderground v.1.15,2013-06-04 11:00:00,
2013-06-04 07:10:00,42.3,40.1,30.08,NNE,13,0.0,0.0,92,0.00,,,0.00,Wunderground v.1.15,2013-06-04 11:10:00,
2013-06-04 07:15:00,42.3,40.1,30.08,NNE,13,0.0,0.0,92,0.00,,,0.00,Wunderground v.1.15,2013-06-04 11:15:00,
2013-06-04 07:25:00,42.9,40.7,30.08,NNE,13,0.0,0.0,92,0.00,,,0.00,Wunderground v.1.15,2013-06-04 11:25:00,
2013-06-04 07:30:00,43.3,41.4,30.08,NNE,13,0.0,0.0,93,0.00,,,0.00,Wunderground v.1.15,2013-06-04 11:30:00,
2013-06-04 07:40:00,43.9,42.0,30.08,NNE,13,0.0,0.0,93,0.00,,,0.00,Wunderground v.1.15,2013-06-04 11:40:00,
2013-06-04 07:45:00,44.3,42.4,30.08,NNE,13,0.0,0.0,93,0.00,,,0.00,Wunderground v.1.15,2013-06-04 11:45:00,
2013-06-04 07:55:00,45.2,43.0,30.08,NNE,13,0.0,0.0,92,0.00,,,0.00,Wunderground v.1.15,2013-06-04 11:55:00,
2013-06-04 08:00:00,45.8,43.6,30.08,NNE,13,0.0,0.0,92,0.00,,,0.00,Wunderground v.1.15,2013-06-04 12:00:00,
2013-06-04 08:10:00,46.5,43.7,30.08,NNE,13,0.0,0.0,90,0.00,,,0.00,Wunderground v.1.15,2013-06-04 12:10:00,
2013-06-04 08:15:00,47.6,43.9,30.08,NNE,13,0.0,0.0,87,0.00,,,0.00,Wunderground v.1.15,2013-06-04 12:15:00,
2013-06-04 08:25:00,48.6,43.7,30.08,NNE,13,0.0,0.0,83,0.00,,,0.00,Wunderground v.1.15,2013-06-04 12:25:00,
2013-06-04 08:30:00,49.8,44.5,30.10,NNE,13,0.0,0.0,82,0.00,,,0.00,Wunderground v.1.15,2013-06-04 12:30:00,
2013-06-04 08:40:00,51.4,44.1,30.10,NNE,13,0.0,0.0,76,0.00,,,0.00,Wunderground v.1.15,2013-06-04 12:40:00,
2013-06-04 08:45:00,52.2,44.2,30.10,NNE,13,0.0,0.0,74,0.00,,,0.00,Wunderground v.1.15,2013-06-04 12:45:00,
2013-06-04 08:55:00,53.3,43.4,30.10,NNE,13,0.0,0.0,69,0.00,,,0.00,Wunderground v.1.15,2013-06-04 12:55:00,
2013-06-04 09:00:00,53.9,43.2,30.11,NNE,13,0.0,0.0,67,0.00,,,0.00,Wunderground v.1.15,2013-06-04 13:00:00,
2013-06-04 09:10:00,54.8,44.0,30.11,NNE,13,0.0,0.0,67,0.00,,,0.00,Wunderground v.1.15,2013-06-04 13:10:00,
2013-06-04 09:15:00,55.3,42.9,30.11,NNE,13,0.0,0.0,63,0.00,,,0.00,Wunderground v.1.15,2013-06-04 13:15:00,
2013-06-04 09:25:00,55.9,43.9,30.11,SW,222,0.0,4.0,64,0.00,,,0.00,Wunderground v.1.15,2013-06-04 13:25:00,
2013-06-04 09:30:00,56.5,44.9,30.11,SSW,197,1.0,1.0,65,0.00,,,0.00,Wunderground v.1.15,2013-06-04 13:30:00,
2013-06-04 09:40:00,57.0,41.4,30.11,SSW,209,0.0,0.0,56,0.00,,,0.00,Wunderground v.1.15,2013-06-04 13:40:00,
2013-06-04 09:45:00,57.5,41.9,30.11,SSW,209,0.0,0.0,56,0.00,,,0.00,Wunderground v.1.15,2013-06-04 13:45:00,
2013-06-04 09:55:00,58.6,42.9,30.11,SSW,209,0.0,4.0,56,0.00,,,0.00,Wunderground v.1.15,2013-06-04 13:55:00,
2013-06-04 10:00:00,59.3,44.5,30.10,South,187,1.0,1.0,58,0.00,,,0.00,Wunderground v.1.15,2013-06-04 14:00:00,
2013-06-04 10:10:00,59.9,44.2,30.10,NE,42,1.0,1.0,56,0.00,,,0.00,Wunderground v.1.15,2013-06-04 14:10:00,
2013-06-04 10:15:00,60.2,43.5,30.10,SSW,213,1.0,1.0,54,0.00,,,0.00,Wunderground v.1.15,2013-06-04 14:15:00,
2013-06-04 10:25:00,61.0,47.0,30.10,East,80,1.0,1.0,60,0.00,,,0.00,Wunderground v.1.15,2013-06-04 14:25:00,
2013-06-04 10:30:00,61.2,45.4,30.09,NNE,25,0.0,1.0,56,0.00,,,0.00,Wunderground v.1.15,2013-06-04 14:30:00,
2013-06-04 10:40:00,62.3,47.8,30.09,SSW,210,1.0,4.0,59,0.00,,,0.00,Wunderground v.1.15,2013-06-04 14:40:00,
2013-06-04 10:45:00,62.6,45.7,30.09,SSW,203,1.0,4.0,54,0.00,,,0.00,Wunderground v.1.15,2013-06-04 14:45:00,
2013-06-04 10:55:00,63.1,44.7,30.09,NNE,13,1.0,2.0,51,0.00,,,0.00,Wunderground v.1.15,2013-06-04 14:55:00,
2013-06-04 11:00:00,63.5,48.9,30.09,SW,227,0.0,0.0,59,0.00,,,0.00,Wunderground v.1.15,2013-06-04 15:00:00,
2013-06-04 11:10:00,64.2,44.6,30.09,SSW,205,1.0,2.0,49,0.00,,,0.00,Wunderground v.1.15,2013-06-04 15:10:00,
2013-06-04 11:15:00,64.7,45.6,30.09,SW,221,1.0,2.0,50,0.00,,,0.00,Wunderground v.1.15,2013-06-04 15:15:00,
2013-06-04 11:25:00,65.0,45.9,30.09,SW,225,1.0,1.0,50,0.00,,,0.00,Wunderground v.1.15,2013-06-04 15:25:00,
2013-06-04 11:30:00,65.5,45.3,30.08,NE,48,0.0,0.0,48,0.00,,,0.00,Wunderground v.1.15,2013-06-04 15:30:00,
2013-06-04 11:40:00,66.0,45.7,30.08,ENE,78,0.0,0.0,48,0.00,,,0.00,Wunderground v.1.15,2013-06-04 15:40:00,
2013-06-04 11:45:00,66.1,46.9,30.09,SW,221,0.0,0.0,50,0.00,,,0.00,Wunderground v.1.15,2013-06-04 15:45:00,
2013-06-04 11:55:00,66.8,48.6,30.09,South,190,1.0,1.0,52,0.00,,,0.00,Wunderground v.1.15,2013-06-04 15:55:00,
2013-06-04 12:00:00,67.1,45.6,30.10,North,5,1.0,1.0,46,0.00,,,0.00,Wunderground v.1.15,2013-06-04 16:00:00,
2013-06-04 12:10:00,67.1,46.2,30.10,SSW,207,1.0,1.0,47,0.00,,,0.00,Wunderground v.1.15,2013-06-04 16:10:00,
2013-06-04 12:15:00,67.4,46.5,30.10,NW,324,1.0,2.0,47,0.00,,,0.00,Wunderground v.1.15,2013-06-04 16:15:00,
2013-06-04 12:25:00,67.9,46.3,30.10,North,11,1.0,1.0,46,0.00,,,0.00,Wunderground v.1.15,2013-06-04 16:25:00,
2013-06-04 12:30:00,67.8,46.8,30.10,SSW,203,1.0,1.0,47,0.00,,,0.00,Wunderground v.1.15,2013-06-04 16:30:00,
2013-06-04 12:40:00,68.1,45.4,30.10,NE,37,1.0,1.0,44,0.00,,,0.00,Wunderground v.1.15,2013-06-04 16:40:00,
2013-06-04 12:45:00,68.6,49.2,30.09,SSE,166,0.0,1.0,50,0.00,,,0.00,Wunderground v.1.15,2013-06-04 16:45:00,
2013-06-04 12:55:00,68.6,47.0,30.09,WSW,244,1.0,2.0,46,0.00,,,0.00,Wunderground v.1.15,2013-06-04 16:55:00,
2013-06-04 13:01:00,68.6,47.6,30.08,NE,41,1.0,1.0,47,0.00,,,0.00,Wunderground v.1.15,2013-06-04 17:01:00,
2013-06-04 13:10:00,68.4,46.8,30.08,SSW,202,1.0,2.0,46,0.00,,,0.00,Wunderground v.1.15,2013-06-04 17:10:00,
2013-06-04 13:15:00,68.3,50.0,30.09,SSW,198,2.0,4.0,52,0.00,,,0.00,Wunderground v.1.15,2013-06-04 17:15:00,
2013-06-04 13:25:00,68.9,55.3,30.09,SSE,161,2.0,2.0,62,0.00,,,0.00,Wunderground v.1.15,2013-06-04 17:25:00,
2013-06-04 13:30:00,69.3,49.9,30.08,NNE,25,1.0,1.0,50,0.00,,,0.00,Wunderground v.1.15,2013-06-04 17:30:00,
2013-06-04 13:40:00,69.8,44.4,30.08,WSW,238,1.0,1.0,40,0.00,,,0.00,Wunderground v.1.15,2013-06-04 17:40:00,
2013-06-04 13:46:00,69.8,50.9,30.08,SSE,168,2.0,2.0,51,0.00,,,0.00,Wunderground v.1.15,2013-06-04 17:46:00,
2013-06-04 13:55:00,69.8,43.7,30.08,NNW,344,1.0,2.0,39,0.00,,,0.00,Wunderground v.1.15,2013-06-04 17:55:00,
2013-06-04 14:00:00,70.3,46.7,30.08,ENE,76,0.0,1.0,43,0.00,,,0.00,Wunderground v.1.15,2013-06-04 18:00:00,
2013-06-04 14:10:00,71.3,47.0,30.08,North,5,0.0,1.0,42,0.00,,,0.00,Wunderground v.1.15,2013-06-04 18:10:00,
2013-06-04 14:15:00,71.5,50.2,30.07,NNW,348,0.0,3.0,47,0.00,,,0.00,Wunderground v.1.15,2013-06-04 18:15:00,
2013-06-04 14:25:00,71.5,45.9,30.07,North,5,1.0,1.0,40,0.00,,,0.00,Wunderground v.1.15,2013-06-04 18:25:00,
2013-06-04 14:30:00,71.1,47.5,30.07,NNE,12,1.0,2.0,43,0.00,,,0.00,Wunderground v.1.15,2013-06-04 18:30:00,
2013-06-04 14:40:00,70.6,43.1,30.07,NNE,28,2.0,2.0,37,0.00,,,0.00,Wunderground v.1.15,2013-06-04 18:40:00,
2013-06-04 14:45:00,70.8,47.8,30.06,East,96,1.0,2.0,44,0.00,,,0.00,Wunderground v.1.15,2013-06-04 18:45:00,
2013-06-04 14:55:00,71.3,45.7,30.06,NE,51,1.0,1.0,40,0.00,,,0.00,Wunderground v.1.15,2013-06-04 18:55:00,
2013-06-04 15:00:00,71.3,48.3,30.05,SW,214,1.0,1.0,44,0.00,,,0.00,Wunderground v.1.15,2013-06-04 19:00:00,
2013-06-04 15:10:00,71.1,46.8,30.05,South,188,1.0,2.0,42,0.00,,,0.00,Wunderground v.1.15,2013-06-04 19:10:00,
2013-06-04 15:15:00,70.4,46.2,30.05,South,188,2.0,2.0,42,0.00,,,0.00,Wunderground v.1.15,2013-06-04 19:15:00,
2013-06-04 15:25:00,71.6,53.0,30.05,West,261,0.0,1.0,52,0.00,,,0.00,Wunderground v.1.15,2013-06-04 19:25:00,
2013-06-04 15:30:00,71.6,43.9,30.05,NNE,22,0.0,0.0,37,0.00,,,0.00,Wunderground v.1.15,2013-06-04 19:30:00,
2013-06-04 15:40:00,72.1,50.2,30.05,West,261,0.0,0.0,46,0.00,,,0.00,Wunderground v.1.15,2013-06-04 19:40:00,
2013-06-04 15:45:00,72.1,50.2,30.05,SSE,150,1.0,1.0,46,0.00,,,0.00,Wunderground v.1.15,2013-06-04 19:45:00,
2013-06-04 15:55:00,72.1,50.2,30.05,ENE,61,1.0,3.0,46,0.00,,,0.00,Wunderground v.1.15,2013-06-04 19:55:00,
2013-06-04 16:01:00,72.0,48.9,30.05,SSW,208,1.0,2.0,44,0.00,,,0.00,Wunderground v.1.15,2013-06-04 20:01:00,
2013-06-04 16:10:00,71.8,49.3,30.05,SSW,202,1.0,1.0,45,0.00,,,0.00,Wunderground v.1.15,2013-06-04 20:10:00,
2013-06-04 16:15:00,72.1,45.8,30.05,North,355,1.0,1.0,39,0.00,,,0.00,Wunderground v.1.15,2013-06-04 20:15:00,
2013-06-04 16:25:00,72.8,47.7,30.05,North,355,0.0,1.0,41,0.00,,,0.00,Wunderground v.1.15,2013-06-04 20:25:00,
2013-06-04 16:30:00,73.0,47.9,30.05,NNE,17,1.0,1.0,41,0.00,,,0.00,Wunderground v.1.15,2013-06-04 20:30:00,
2013-06-04 16:40:00,73.0,49.2,30.05,NNE,32,0.0,0.0,43,0.00,,,0.00,Wunderground v.1.15,2013-06-04 20:40:00,
2013-06-04 16:45:00,72.8,49.0,30.05,SW,217,0.0,4.0,43,0.00,,,0.00,Wunderground v.1.15,2013-06-04 20:45:00,
2013-06-04 16:55:00,72.7,46.3,30.05,NNE,30,1.0,1.0,39,0.00,,,0.00,Wunderground v.1.15,2013-06-04 20:55:00,
2013-06-04 17:00:00,73.0,46.6,30.04,West,281,1.0,1.0,39,0.00,,,0.00,Wunderground v.1.15,2013-06-04 21:00:00,
2013-06-04 17:10:00,72.8,48.4,30.04,West,281,0.0,0.0,42,0.00,,,0.00,Wunderground v.1.15,2013-06-04 21:10:00,
2013-06-04 17:20:00,72.7,48.9,30.04,WSW,247,0.0,0.0,43,0.00,,,0.00,Wunderground v.1.15,2013-06-04 21:20:00,
2013-06-04 17:30:00,72.7,47.6,30.04,NNE,28,0.0,1.0,41,0.00,,,0.00,Wunderground v.1.15,2013-06-04 21:30:00,
2013-06-04 17:40:00,72.8,46.4,30.04,NNE,28,0.0,0.0,39,0.00,,,0.00,Wunderground v.1.15,2013-06-04 21:40:00,
2013-06-04 17:45:00,72.5,50.5,30.04,SSE,168,0.0,0.0,46,0.00,,,0.00,Wunderground v.1.15,2013-06-04 21:45:00,
2013-06-04 17:55:00,72.8,46.4,30.04,North,5,0.0,2.0,39,0.00,,,0.00,Wunderground v.1.15,2013-06-04 21:55:00,
2013-06-04 18:00:00,72.7,47.6,30.04,NNE,12,0.0,0.0,41,0.00,,,0.00,Wunderground v.1.15,2013-06-04 22:00:00,
2013-06-04 18:10:00,72.1,47.1,30.04,NNE,13,0.0,0.0,41,0.00,,,0.00,Wunderground v.1.15,2013-06-04 22:10:00,
2013-06-04 18:15:00,72.5,51.1,30.04,NNE,16,0.0,0.0,47,0.00,,,0.00,Wunderground v.1.15,2013-06-04 22:15:00,
2013-06-04 18:25:00,72.5,47.5,30.04,North,11,0.0,0.0,41,0.00,,,0.00,Wunderground v.1.15,2013-06-04 22:25:00,
2013-06-04 18:30:00,72.3,46.6,30.04,NNE,27,0.0,0.0,40,0.00,,,0.00,Wunderground v.1.15,2013-06-04 22:30:00,
2013-06-04 18:40:00,72.1,43.7,30.04,NNE,27,0.0,0.0,36,0.00,,,0.00,Wunderground v.1.15,2013-06-04 22:40:00,
2013-06-04 18:45:00,71.8,46.2,30.04,NNE,27,0.0,0.0,40,0.00,,,0.00,Wunderground v.1.15,2013-06-04 22:45:00,
2013-06-04 18:55:00,71.1,47.5,30.04,NNE,27,0.0,0.0,43,0.00,,,0.00,Wunderground v.1.15,2013-06-04 22:55:00,
2013-06-04 19:00:00,70.4,46.2,30.04,NNE,27,0.0,0.0,42,0.00,,,0.00,Wunderground v.1.15,2013-06-04 23:00:00,
2013-06-04 19:10:00,69.8,47.5,30.04,NNE,27,0.0,0.0,45,0.00,,,0.00,Wunderground v.1.15,2013-06-04 23:10:00,
2013-06-04 19:15:00,69.4,47.1,30.03,NNE,27,0.0,0.0,45,0.00,,,0.00,Wunderground v.1.15,2013-06-04 23:15:00,
2013-06-04 19:25:00,68.8,48.3,30.03,NNE,27,0.0,0.0,48,0.00,,,0.00,Wunderground v.1.15,2013-06-04 23:25:00,
2013-06-04 19:30:00,68.4,48.5,30.03,NNE,27,0.0,0.0,49,0.00,,,0.00,Wunderground v.1.15,2013-06-04 23:30:00,
2013-06-04 19:40:00,67.8,47.4,30.03,NNE,27,0.0,0.0,48,0.00,,,0.00,Wunderground v.1.15,2013-06-04 23:40:00,
2013-06-04 19:45:00,67.6,48.3,30.03,NNE,27,0.0,0.0,50,0.00,,,0.00,Wunderground v.1.15,2013-06-04 23:45:00,
2013-06-04 19:55:00,66.9,48.2,30.03,NNE,27,0.0,0.0,51,0.00,,,0.00,Wunderground v.1.15,2013-06-04 23:55:00,
2013-06-04 20:00:00,66.6,48.4,30.03,NNE,27,0.0,0.0,52,0.00,,,0.00,Wunderground v.1.15,2013-06-05 00:00:00,
2013-06-04 20:10:00,66.1,48.0,30.03,NNE,27,0.0,0.0,52,0.00,,,0.00,Wunderground v.1.15,2013-06-05 00:10:00,
2013-06-04 20:15:00,65.8,47.7,30.03,NNE,27,0.0,0.0,52,0.00,,,0.00,Wunderground v.1.15,2013-06-05 00:15:00,
2013-06-04 20:25:00,65.3,48.2,30.03,NNE,27,0.0,0.0,54,0.00,,,0.00,Wunderground v.1.15,2013-06-05 00:25:00,
2013-06-04 20:30:00,65.0,47.9,30.04,NNE,27,0.0,0.0,54,0.00,,,0.00,Wunderground v.1.15,2013-06-05 00:30:00,
2013-06-04 20:40:00,64.3,48.3,30.04,NNE,27,0.0,0.0,56,0.00,,,0.00,Wunderground v.1.15,2013-06-05 00:40:00,
2013-06-04 20:45:00,63.9,47.9,30.03,NNE,27,0.0,0.0,56,0.00,,,0.00,Wunderground v.1.15,2013-06-05 00:45:00,
2013-06-04 20:55:00,63.2,47.7,30.03,NNE,27,0.0,0.0,57,0.00,,,0.00,Wunderground v.1.15,2013-06-05 00:55:00,
2013-06-04 21:05:00,62.4,48.3,30.04,NNE,27,0.0,0.0,60,0.00,,,0.00,Wunderground v.1.15,2013-06-05 01:05:00,
2013-06-04 21:10:00,62.1,48.0,30.04,NNE,27,0.0,0.0,60,0.00,,,0.00,Wunderground v.1.15,2013-06-05 01:10:00,
2013-06-04 21:16:00,61.8,48.6,30.04,NNE,27,0.0,0.0,62,0.00,,,0.00,Wunderground v.1.15,2013-06-05 01:16:00,
2013-06-04 21:25:00,61.2,48.9,30.04,NNE,27,0.0,0.0,64,0.00,,,0.00,Wunderground v.1.15,2013-06-05 01:25:00,
2013-06-04 21:30:00,60.9,48.6,30.04,NNE,27,0.0,0.0,64,0.00,,,0.00,Wunderground v.1.15,2013-06-05 01:30:00,
2013-06-04 21:40:00,60.4,48.6,30.04,NNE,27,0.0,0.0,65,0.00,,,0.00,Wunderground v.1.15,2013-06-05 01:40:00,
2013-06-04 21:45:00,60.1,48.3,30.04,NNE,27,0.0,0.0,65,0.00,,,0.00,Wunderground v.1.15,2013-06-05 01:45:00,
2013-06-04 21:55:00,59.6,49.0,30.04,NNE,27,0.0,0.0,68,0.00,,,0.00,Wunderground v.1.15,2013-06-05 01:55:00,
2013-06-04 22:00:00,59.3,48.7,30.04,NNE,27,0.0,0.0,68,0.00,,,0.00,Wunderground v.1.15,2013-06-05 02:00:00,
2013-06-04 22:10:00,58.9,49.1,30.04,NNE,27,0.0,0.0,70,0.00,,,0.00,Wunderground v.1.15,2013-06-05 02:10:00,
2013-06-04 22:15:00,58.7,49.7,30.05,NNE,27,0.0,0.0,72,0.00,,,0.00,Wunderground v.1.15,2013-06-05 02:15:00,
2013-06-04 22:25:00,58.4,49.8,30.05,NNE,27,0.0,0.0,73,0.00,,,0.00,Wunderground v.1.15,2013-06-05 02:25:00,
2013-06-04 22:30:00,58.3,50.0,30.06,NNE,27,0.0,0.0,74,0.00,,,0.00,Wunderground v.1.15,2013-06-05 02:30:00,
2013-06-04 22:40:00,58.0,50.1,30.06,NNE,27,0.0,0.0,75,0.00,,,0.00,Wunderground v.1.15,2013-06-05 02:40:00,
2013-06-04 22:45:00,57.8,49.2,30.06,NNE,27,0.0,0.0,73,0.00,,,0.00,Wunderground v.1.15,2013-06-05 02:45:00,
2013-06-04 22:55:00,57.6,49.0,30.06,NNE,27,0.0,0.0,73,0.00,,,0.00,Wunderground v.1.15,2013-06-05 02:55:00,
2013-06-04 23:01:00,57.8,49.6,30.06,NNE,27,0.0,0.0,74,0.00,,,0.00,Wunderground v.1.15,2013-06-05 03:01:00,
2013-06-04 23:10:00,57.8,48.5,30.06,NNE,28,0.0,0.0,71,0.00,,,0.00,Wunderground v.1.15,2013-06-05 03:10:00,
2013-06-04 23:15:00,58.0,47.5,30.06,NNE,28,0.0,0.0,68,0.00,,,0.00,Wunderground v.1.15,2013-06-05 03:15:00,
2013-06-04 23:25:00,58.0,47.5,30.06,NNE,28,0.0,1.0,68,0.00,,,0.00,Wunderground v.1.15,2013-06-05 03:25:00,
2013-06-04 23:30:00,58.0,47.1,30.06,NNE,28,0.0,0.0,67,0.00,,,0.00,Wunderground v.1.15,2013-06-05 03:30:00,
2013-06-04 23:40:00,57.8,46.9,30.06,NNE,30,0.0,0.0,67,0.00,,,0.00,Wunderground v.1.15,2013-06-05 03:40:00,
2013-06-04 23:45:00,57.6,46.3,30.06,NNE,30,0.0,0.0,66,0.00,,,0.00,Wunderground v.1.15,2013-06-05 03:45:00,
2013-06-04 23:55:00,57.5,46.2,30.06,NNE,30,0.0,0.0,66,0.00,,,0.00,Wunderground v.1.15,2013-06-05 03:55:00,